Time;durP1;ratioP1;P1;durP2;ratioP2;P2;SDS_P1;SDS_P2;PMS_P1;PMS_P2;Temp;Humidity;BMP_temperature;BMP_pressure;BME280_temperature;BME280_humidity;BME280_pressure;Samples;Min_cycle;Max_cycle;Signal;HPM_P1;HPM_P2
2022/07/08 00:02:14;;;;;;;;;;;;;;;;;;2209988;67;1187;-54
2022/07/08 00:04:47;;;;;;;;;;;;;;;;;;2210061;59;1307;-52
2022/07/08 00:07:20;;;;;;;;;;;;;;;;;;2209571;67;1256;-53
2022/07/08 00:09:53;;;;;;;;;;;;;;;;;;2209799;67;1102;-53
2022/07/08 00:12:26;;;;;;;;;;;;;;;;;;2209565;59;1338;-53
2022/07/08 00:14:59;;;;;;;;;;;;;;;;;;2209871;67;1987;-55
2022/07/08 00:17:35;;;;;;;;;;;;;;;;;;2209683;67;1223;-54
2022/07/08 00:20:09;;;;;;;;;;;;;;;;;;2210036;67;1124;-56
2022/07/08 00:22:42;;;;;;;;;;;;;;;;;;2210029;67;1080;-53
2022/07/08 00:25:15;;;;;;;;;;;;;;;;;;2209861;67;1175;-54
2022/07/08 00:27:49;;;;;;;;;;;;;;;;;;2210466;59;1287;-53
2022/07/08 00:30:22;;;;;;;;;;;;;;;;;;2210515;59;1984;-54
2022/07/08 00:32:58;;;;;;;;;;;;;;;;;;2210571;67;1332;-54
2022/07/08 00:35:31;;;;;;;;;;;;;;;;;;2210451;67;1983;-54
2022/07/08 00:38:04;;;;;;;;;;;;;;;;;;2210564;60;1394;-53
2022/07/08 00:40:37;;;;;;;;;;;;;;;;;;2210447;59;1938;-61
2022/07/08 00:43:25;;;;;;;;;;;;;;;;;;2209882;67;1239;-54
2022/07/08 00:45:58;;;;;;;;;;;;;;;;;;2210754;67;1291;-55
2022/07/08 00:48:34;;;;;;;;;;;;;;;;;;2210447;67;1547;-53
2022/07/08 00:51:09;;;;;;;;;;;;;;;;;;2209859;67;1254;-60
2022/07/08 00:53:43;;;;;;;;;;;;;;;;;;2210276;67;1191;-54
2022/07/08 00:56:16;;;;;;;;;;;;;;;;;;2210406;67;1932;-55
2022/07/08 00:58:50;;;;;;;;;;;;;;;;;;2210307;67;1092;-54
2022/07/08 01:01:23;;;;;;;;;;;;;;;;;;2210389;67;1290;-53
2022/07/08 01:03:59;;;;;;;;;;;;;;;;;;2210542;59;1271;-54
2022/07/08 01:06:32;;;;;;;;;;;;;;;;;;2209715;67;1251;-53
2022/07/08 01:09:06;;;;;;;;;;;;;;;;;;2210377;67;1186;-53
2022/07/08 01:11:39;;;;;;;;;;;;;;;;;;2210489;59;1326;-56
2022/07/08 01:14:12;;;;;;;;;;;;;;;;;;2210720;67;1941;-53
2022/07/08 01:16:45;;;;;;;;;;;;;;;;;;2210557;67;1195;-58
2022/07/08 01:19:21;;;;;;;;;;;;;;;;;;2210818;67;1251;-53
2022/07/08 01:21:57;;;;;;;;;;;;;;;;;;2210798;67;1104;-58
2022/07/08 01:24:30;;;;;;;;;;;;;;;;;;2210687;67;1107;-53
2022/07/08 01:27:04;;;;;;;;;;;;;;;;;;2210366;59;1311;-53
2022/07/08 01:29:37;;;;;;;;;;;;;;;;;;2210382;67;1104;-54
2022/07/08 01:32:10;;;;;;;;;;;;;;;;;;2210036;59;1943;-54
2022/07/08 01:34:43;;;;;;;;;;;;;;;;;;2210406;67;1944;-54
2022/07/08 01:37:19;;;;;;;;;;;;;;;;;;2210438;67;1202;-53
2022/07/08 01:39:52;;;;;;;;;;;;;;;;;;2210304;67;1104;-54
2022/07/08 01:42:25;;;;;;;;;;;;;;;;;;2209763;59;2038;-53
2022/07/08 01:44:59;;;;;;;;;;;;;;;;;;2209731;67;1300;-54
2022/07/08 01:47:32;;;;;;;;;;;;;;;;;;2210216;67;1271;-53
2022/07/08 01:50:05;;;;;;;;;;;;;;;;;;2210357;67;1225;-55
2022/07/08 01:52:41;;;;;;;;;;;;;;;;;;2210275;67;1087;-54
2022/07/08 01:55:15;;;;;;;;;;;;;;;;;;2210039;67;1908;-55
2022/07/08 01:57:48;;;;;;;;;;;;;;;;;;2210501;67;1291;-52
2022/07/08 02:00:21;;;;;;;;;;;;;;;;;;2209759;67;1224;-55
2022/07/08 02:02:54;;;;;;;;;;;;;;;;;;2210560;67;1067;-53
2022/07/08 02:05:28;;;;;;;;;;;;;;;;;;2209919;59;1382;-59
2022/07/08 02:08:04;;;;;;;;;;;;;;;;;;2209834;67;1319;-53
2022/07/08 02:13:22;;;;;;;;;;;;;;;;;;2209789;67;1721;-54
2022/07/08 02:15:56;;;;;;;;;;;;;;;;;;2210551;67;1945;-60
2022/07/08 02:18:29;;;;;;;;;;;;;;;;;;2209939;67;1245;-53
2022/07/08 02:21:03;;;;;;;;;;;;;;;;;;2210040;67;1149;-54
2022/07/08 02:23:39;;;;;;;;;;;;;;;;;;2209963;67;1150;-53
2022/07/08 02:26:12;;;;;;;;;;;;;;;;;;2210529;59;1300;-54
2022/07/08 02:28:45;;;;;;;;;;;;;;;;;;2210435;59;1177;-54
2022/07/08 02:31:18;;;;;;;;;;;;;;;;;;2209527;59;2055;-53
2022/07/08 02:33:51;;;;;;;;;;;;;;;;;;2210067;67;1085;-53
2022/07/08 02:36:24;;;;;;;;;;;;;;;;;;2210204;67;1984;-53
2022/07/08 02:39:00;;;;;;;;;;;;;;;;;;2210050;67;1083;-54
2022/07/08 02:41:33;;;;;;;;;;;;;;;;;;2210043;59;1989;-52
2022/07/08 02:44:07;;;;;;;;;;;;;;;;;;2209813;67;1170;-53
2022/07/08 02:46:41;;;;;;;;;;;;;;;;;;2209669;67;1268;-53
2022/07/08 02:49:15;;;;;;;;;;;;;;;;;;2210097;59;1220;-53
2022/07/08 02:51:48;;;;;;;;;;;;;;;;;;2209999;67;1102;-57
2022/07/08 02:54:24;;;;;;;;;;;;;;;;;;2210063;67;1195;-54
2022/07/08 02:56:57;;;;;;;;;;;;;;;;;;2209862;67;1933;-53
2022/07/08 02:59:30;;;;;;;;;;;;;;;;;;2209820;60;1228;-54
2022/07/08 03:02:03;;;;;;;;;;;;;;;;;;2210114;67;1064;-54
2022/07/08 03:04:36;;;;;;;;;;;;;;;;;;2209648;59;2474;-53
2022/07/08 03:07:10;;;;;;;;;;;;;;;;;;2210324;59;1282;-53
2022/07/08 03:09:46;;;;;;;;;;;;;;;;;;2209839;67;999;-56
2022/07/08 03:12:28;;;;;;;;;;;;;;;;;;2219038;58;1361;-57
2022/07/08 03:15:01;;;;;;;;;;;;;;;;;;2219286;66;1053;-53
2022/07/08 03:17:34;;;;;;;;;;;;;;;;;;2217297;59;1196;-57
2022/07/08 03:20:08;;;;;;;;;;;;;;;;;;2215924;66;1200;-53
2022/07/08 03:22:41;;;;;;;;;;;;;;;;;;2215821;66;1137;-55
2022/07/08 03:25:14;;;;;;;;;;;;;;;;;;2216530;59;1252;-52
2022/07/08 03:27:50;;;;;;;;;;;;;;;;;;2216802;66;1195;-59
2022/07/08 03:30:24;;;;;;;;;;;;;;;;;;2217080;59;2038;-53
2022/07/08 03:32:57;;;;;;;;;;;;;;;;;;2217460;66;1097;-53
2022/07/08 03:35:30;;;;;;;;;;;;;;;;;;2215966;66;1134;-56
2022/07/08 03:38:03;;;;;;;;;;;;;;;;;;2216095;59;1268;-53
2022/07/08 03:43:28;;;;;;;;;;;;;;;;;;2216535;66;1129;-53
2022/07/08 03:46:01;;;;;;;;;;;;;;;;;;2217010;66;1241;-53
2022/07/08 03:48:34;;;;;;;;;;;;;;;;;;2215847;66;1133;-55
2022/07/08 03:51:07;;;;;;;;;;;;;;;;;;2215884;66;1929;-53
2022/07/08 03:53:40;;;;;;;;;;;;;;;;;;2215508;66;1082;-53
2022/07/08 03:56:14;;;;;;;;;;;;;;;;;;2217003;66;1315;-53
2022/07/08 03:58:50;;;;;;;;;;;;;;;;;;2217066;66;1053;-52
2022/07/08 04:01:23;;;;;;;;;;;;;;;;;;2217215;66;1256;-53
2022/07/08 04:03:56;;;;;;;;;;;;;;;;;;2215938;66;1125;-52
2022/07/08 04:06:29;;;;;;;;;;;;;;;;;;2216811;66;1240;-54
2022/07/08 04:09:02;;;;;;;;;;;;;;;;;;2216070;66;1148;-52
2022/07/08 04:11:36;;;;;;;;;;;;;;;;;;2215047;58;2000;-53
2022/07/08 04:14:12;;;;;;;;;;;;;;;;;;2214210;66;1172;-53
2022/07/08 04:16:46;;;;;;;;;;;;;;;;;;2214134;66;1302;-52
2022/07/08 04:19:19;;;;;;;;;;;;;;;;;;2214021;66;1320;-54
2022/07/08 04:21:52;;;;;;;;;;;;;;;;;;2213746;66;1055;-53
2022/07/08 04:24:25;;;;;;;;;;;;;;;;;;2211088;67;1240;-53
2022/07/08 04:26:58;;;;;;;;;;;;;;;;;;2211465;59;1288;-53
2022/07/08 04:29:34;;;;;;;;;;;;;;;;;;2211295;67;1162;-53
2022/07/08 04:32:07;;;;;;;;;;;;;;;;;;2211014;59;1998;-54
2022/07/08 04:34:40;;;;;;;;;;;;;;;;;;2211239;67;1191;-52
2022/07/08 04:37:14;;;;;;;;;;;;;;;;;;2212025;66;1252;-52
2022/07/08 04:39:47;;;;;;;;;;;;;;;;;;2210963;59;1625;-52
2022/07/08 04:42:20;;;;;;;;;;;;;;;;;;2210364;59;2012;-52
2022/07/08 04:44:56;;;;;;;;;;;;;;;;;;2211977;66;1109;-53
2022/07/08 04:47:29;;;;;;;;;;;;;;;;;;2211316;67;1244;-52
2022/07/08 04:50:02;;;;;;;;;;;;;;;;;;2211225;67;1174;-52
2022/07/08 04:52:35;;;;;;;;;;;;;;;;;;2210908;67;2354;-53
2022/07/08 04:55:27;;;;;;;;;;;;;;;;;;2211999;66;1189;-53
2022/07/08 04:58:01;;;;;;;;;;;;;;;;;;2211604;66;1190;-52
2022/07/08 05:00:37;;;;;;;;;;;;;;;;;;2211266;66;1101;-53
2022/07/08 05:03:10;;;;;;;;;;;;;;;;;;2211501;67;1192;-53
2022/07/08 05:05:43;;;;;;;;;;;;;;;;;;2210856;67;1249;-52
2022/07/08 05:08:16;;;;;;;;;;;;;;;;;;2210999;67;1166;-53
2022/07/08 05:10:50;;;;;;;;;;;;;;;;;;2210312;59;1994;-53
2022/07/08 05:13:23;;;;;;;;;;;;;;;;;;2212529;59;1232;-52
2022/07/08 05:15:59;;;;;;;;;;;;;;;;;;2212083;66;1236;-52
2022/07/08 05:18:32;;;;;;;;;;;;;;;;;;2210786;60;1180;-52
2022/07/08 05:21:05;;;;;;;;;;;;;;;;;;2211168;66;1156;-52
2022/07/08 05:23:39;;;;;;;;;;;;;;;;;;2212014;66;1226;-52
2022/07/08 05:26:12;;;;;;;;;;;;;;;;;;2211927;59;1300;-53
2022/07/08 05:28:45;;;;;;;;;;;;;;;;;;2211778;60;1269;-52
2022/07/08 05:31:21;;;;;;;;;;;;;;;;;;2211239;59;2022;-55
2022/07/08 05:33:54;;;;;;;;;;;;;;;;;;2211460;66;1141;-53
2022/07/08 05:36:27;;;;;;;;;;;;;;;;;;2211154;66;1231;-53
2022/07/08 05:39:01;;;;;;;;;;;;;;;;;;2211838;59;1370;-52
2022/07/08 05:41:34;;;;;;;;;;;;;;;;;;2211509;59;1903;-52
2022/07/08 05:44:07;;;;;;;;;;;;;;;;;;2212117;67;1257;-52
2022/07/08 05:46:43;;;;;;;;;;;;;;;;;;2211228;66;1165;-53
2022/07/08 05:49:16;;;;;;;;;;;;;;;;;;2211835;67;1253;-53
2022/07/08 05:51:50;;;;;;;;;;;;;;;;;;2210691;66;1997;-52
2022/07/08 05:54:23;;;;;;;;;;;;;;;;;;2211254;67;1134;-52
2022/07/08 05:56:56;;;;;;;;;;;;;;;;;;2213708;66;1214;-53
2022/07/08 05:59:31;;;;;;;;;;;;;;;;;;2210402;66;1118;-54
2022/07/08 06:02:07;;;;;;;;;;;;;;;;;;2212079;66;1117;-52
2022/07/08 06:04:40;;;;;;;;;;;;;;;;;;2210656;66;1115;-53
2022/07/08 06:07:13;;;;;;;;;;;;;;;;;;2211145;67;1214;-52
2022/07/08 06:09:47;;;;;;;;;;;;;;;;;;2211237;60;1209;-53
2022/07/08 06:12:20;;;;;;;;;;;;;;;;;;2211362;59;1939;-53
2022/07/08 06:14:53;;;;;;;;;;;;;;;;;;2211827;67;1235;-52
2022/07/08 06:17:29;;;;;;;;;;;;;;;;;;2211899;66;1245;-53
2022/07/08 06:20:02;;;;;;;;;;;;;;;;;;2212252;67;1067;-53
2022/07/08 06:22:35;;;;;;;;;;;;;;;;;;2212530;66;1106;-54
2022/07/08 06:25:09;;;;;;;;;;;;;;;;;;2212471;67;1110;-52
2022/07/08 06:27:42;;;;;;;;;;;;;;;;;;2212484;67;1232;-54
2022/07/08 06:30:15;;;;;;;;;;;;;;;;;;2211045;59;2057;-52
2022/07/08 06:32:51;;;;;;;;;;;;;;;;;;2211989;66;1933;-53
2022/07/08 06:35:24;;;;;;;;;;;;;;;;;;2212396;67;1247;-52
2022/07/08 06:37:58;;;;;;;;;;;;;;;;;;2212334;67;1463;-53
2022/07/08 06:40:31;;;;;;;;;;;;;;;;;;2212603;67;1055;-55
2022/07/08 06:43:04;;;;;;;;;;;;;;;;;;2211909;66;1229;-53
2022/07/08 06:45:37;;;;;;;;;;;;;;;;;;2212226;66;1170;-52
2022/07/08 06:48:13;;;;;;;;;;;;;;;;;;2212023;67;1346;-53
2022/07/08 06:50:46;;;;;;;;;;;;;;;;;;2210958;67;1157;-54
2022/07/08 06:53:19;;;;;;;;;;;;;;;;;;2211658;67;1988;-52
2022/07/08 06:55:52;;;;;;;;;;;;;;;;;;2212158;66;1221;-53
2022/07/08 06:58:26;;;;;;;;;;;;;;;;;;2211649;66;1233;-53
2022/07/08 07:00:59;;;;;;;;;;;;;;;;;;2210000;67;1077;-53
2022/07/08 07:03:35;;;;;;;;;;;;;;;;;;2210244;67;1118;-52
2022/07/08 07:06:08;;;;;;;;;;;;;;;;;;2210374;67;1223;-52
2022/07/08 07:08:42;;;;;;;;;;;;;;;;;;2210047;67;1092;-52
2022/07/08 07:11:15;;;;;;;;;;;;;;;;;;2208809;59;1365;-53
2022/07/08 07:13:48;;;;;;;;;;;;;;;;;;2210350;67;1938;-53
2022/07/08 07:16:21;;;;;;;;;;;;;;;;;;2209353;66;1250;-53
2022/07/08 07:18:57;;;;;;;;;;;;;;;;;;2210423;66;1129;-57
2022/07/08 07:21:31;;;;;;;;;;;;;;;;;;2210700;67;1136;-52
2022/07/08 07:24:04;;;;;;;;;;;;;;;;;;2210306;66;1038;-53
2022/07/08 07:26:37;;;;;;;;;;;;;;;;;;2211131;59;1301;-53
2022/07/08 07:29:10;;;;;;;;;;;;;;;;;;2211009;67;1264;-59
2022/07/08 07:31:44;;;;;;;;;;;;;;;;;;2210529;59;2003;-53
2022/07/08 07:34:19;;;;;;;;;;;;;;;;;;2211307;67;1749;-53
2022/07/08 07:36:53;;;;;;;;;;;;;;;;;;2210253;67;1279;-56
2022/07/08 07:39:26;;;;;;;;;;;;;;;;;;2212118;59;1375;-53
2022/07/08 07:41:59;;;;;;;;;;;;;;;;;;2210727;66;2256;-53
2022/07/08 07:44:32;;;;;;;;;;;;;;;;;;2211270;67;1142;-54
2022/07/08 07:47:06;;;;;;;;;;;;;;;;;;2210164;66;1223;-53
2022/07/08 07:49:42;;;;;;;;;;;;;;;;;;2210059;67;1107;-53
2022/07/08 07:52:15;;;;;;;;;;;;;;;;;;2211176;66;1940;-54
2022/07/08 07:54:48;;;;;;;;;;;;;;;;;;2211587;67;1066;-53
2022/07/08 07:57:21;;;;;;;;;;;;;;;;;;2210506;66;1217;-53
2022/07/08 07:59:54;;;;;;;;;;;;;;;;;;2211218;67;1112;-59
2022/07/08 08:02:27;;;;;;;;;;;;;;;;;;2211246;67;1209;-53
2022/07/08 08:05:03;;;;;;;;;;;;;;;;;;2209763;66;1238;-55
2022/07/08 08:07:37;;;;;;;;;;;;;;;;;;2210584;67;1209;-53
2022/07/08 08:10:11;;;;;;;;;;;;;;;;;;2211584;59;1223;-54
2022/07/08 08:12:44;;;;;;;;;;;;;;;;;;2212034;59;1936;-54
2022/07/08 08:15:18;;;;;;;;;;;;;;;;;;2210771;67;1174;-59
2022/07/08 08:17:51;;;;;;;;;;;;;;;;;;2212495;59;1121;-54
2022/07/08 08:20:29;;;;;;;;;;;;;;;;;;2211531;66;1193;-54
2022/07/08 08:23:02;;;;;;;;;;;;;;;;;;2212104;66;1103;-53
2022/07/08 08:25:35;;;;;;;;;;;;;;;;;;2211448;67;1323;-54
2022/07/08 08:28:08;;;;;;;;;;;;;;;;;;2212148;67;1262;-53
2022/07/08 08:30:42;;;;;;;;;;;;;;;;;;2212871;59;2024;-54
2022/07/08 08:33:15;;;;;;;;;;;;;;;;;;2210731;67;1929;-54
2022/07/08 08:35:51;;;;;;;;;;;;;;;;;;2211878;67;1261;-57
2022/07/08 08:38:24;;;;;;;;;;;;;;;;;;2211078;67;1454;-53
2022/07/08 08:41:00;;;;;;;;;;;;;;;;;;2212141;59;2013;-53
2022/07/08 08:43:33;;;;;;;;;;;;;;;;;;2212331;66;1072;-53
2022/07/08 08:46:08;;;;;;;;;;;;;;;;;;2211237;66;1187;-54
2022/07/08 08:48:41;;;;;;;;;;;;;;;;;;2212317;67;1094;-53
2022/07/08 08:51:20;;;;;;;;;;;;;;;;;;2211537;66;1223;-55
2022/07/08 08:53:55;;;;;;;;;;;;;;;;;;2212270;67;1977;-56
2022/07/08 08:56:29;;;;;;;;;;;;;;;;;;2213006;66;1251;-53
2022/07/08 08:59:02;;;;;;;;;;;;;;;;;;2211464;66;1012;-55
2022/07/08 09:01:36;;;;;;;;;;;;;;;;;;2212161;66;1068;-54
2022/07/08 09:04:10;;;;;;;;;;;;;;;;;;2210415;59;1394;-55
2022/07/08 09:06:46;;;;;;;;;;;;;;;;;;2211376;67;1218;-54
2022/07/08 09:09:19;;;;;;;;;;;;;;;;;;2210710;66;1160;-54
2022/07/08 09:11:52;;;;;;;;;;;;;;;;;;2211406;59;1451;-54
2022/07/08 09:14:26;;;;;;;;;;;;;;;;;;2212099;67;1927;-53
2022/07/08 09:17:13;;;;;;;;;;;;;;;;;;2212399;67;1237;-53
2022/07/08 09:19:46;;;;;;;;;;;;;;;;;;2211815;66;1070;-54
2022/07/08 09:22:22;;;;;;;;;;;;;;;;;;2211384;67;1186;-52
2022/07/08 09:24:58;;;;;;;;;;;;;;;;;;2212819;66;1073;-54
2022/07/08 09:27:31;;;;;;;;;;;;;;;;;;2211447;59;1528;-53
2022/07/08 09:30:05;;;;;;;;;;;;;;;;;;2210691;58;1146;-54
2022/07/08 09:32:38;;;;;;;;;;;;;;;;;;2211178;67;1928;-56
2022/07/08 09:35:14;;;;;;;;;;;;;;;;;;2211200;67;1227;-54
2022/07/08 09:37:52;;;;;;;;;;;;;;;;;;2210690;66;1215;-54
2022/07/08 09:40:25;;;;;;;;;;;;;;;;;;2210951;67;1141;-54
2022/07/08 09:42:58;;;;;;;;;;;;;;;;;;2211273;59;2241;-54
2022/07/08 09:45:32;;;;;;;;;;;;;;;;;;2210349;67;1221;-53
2022/07/08 09:48:06;;;;;;;;;;;;;;;;;;2210896;67;1310;-55
2022/07/08 09:50:41;;;;;;;;;;;;;;;;;;2210903;66;976;-54
2022/07/08 09:53:22;;;;;;;;;;;;;;;;;;2211033;67;1920;-54
2022/07/08 09:55:55;;;;;;;;;;;;;;;;;;2210545;66;1130;-53
2022/07/08 09:58:29;;;;;;;;;;;;;;;;;;2211216;66;1107;-58
2022/07/08 10:01:03;;;;;;;;;;;;;;;;;;2210817;67;1091;-54
2022/07/08 10:03:36;;;;;;;;;;;;;;;;;;2210849;66;1113;-53
2022/07/08 10:06:10;;;;;;;;;;;;;;;;;;2210844;66;1226;-54
2022/07/08 10:08:46;;;;;;;;;;;;;;;;;;2210860;67;1028;-58
2022/07/08 10:11:20;;;;;;;;;;;;;;;;;;2210808;59;1363;-53
2022/07/08 10:13:53;;;;;;;;;;;;;;;;;;2211865;67;1926;-54
2022/07/08 10:16:27;;;;;;;;;;;;;;;;;;2211637;67;1221;-57
2022/07/08 10:19:00;;;;;;;;;;;;;;;;;;2211460;67;1071;-54
2022/07/08 10:21:35;;;;;;;;;;;;;;;;;;2211067;67;1182;-57
2022/07/08 10:24:13;;;;;;;;;;;;;;;;;;2214265;66;1268;-60
2022/07/08 10:26:47;;;;;;;;;;;;;;;;;;2211965;59;1210;-53
2022/07/08 10:29:20;;;;;;;;;;;;;;;;;;2211058;67;1219;-55
2022/07/08 10:31:54;;;;;;;;;;;;;;;;;;2211869;66;2074;-63
2022/07/08 10:34:31;;;;;;;;;;;;;;;;;;2210836;67;1996;-59
2022/07/08 10:37:06;;;;;;;;;;;;;;;;;;2212196;67;1211;-55
2022/07/08 10:39:42;;;;;;;;;;;;;;;;;;2210325;66;1171;-65
2022/07/08 10:42:16;;;;;;;;;;;;;;;;;;2211038;59;1953;-58
2022/07/08 10:44:52;;;;;;;;;;;;;;;;;;2211301;59;1168;-55
2022/07/08 10:47:28;;;;;;;;;;;;;;;;;;2210512;67;1247;-54
2022/07/08 10:50:05;;;;;;;;;;;;;;;;;;2213867;67;1178;-54
2022/07/08 10:52:42;;;;;;;;;;;;;;;;;;2224425;59;1111;-55
2022/07/08 10:55:19;;;;;;;;;;;;;;;;;;2224318;66;1147;-53
2022/07/08 10:57:56;;;;;;;;;;;;;;;;;;2223993;66;1128;-53
2022/07/08 11:00:35;;;;;;;;;;;;;;;;;;2224015;66;1257;-57
2022/07/08 11:03:11;;;;;;;;;;;;;;;;;;2219305;59;1450;-54
2022/07/08 11:05:45;;;;;;;;;;;;;;;;;;2223960;66;1811;-56
2022/07/08 11:08:28;;;;;;;;;;;;;;;;;;2212607;67;1208;-54
2022/07/08 11:11:05;;;;;;;;;;;;;;;;;;2213227;59;1273;-53
2022/07/08 11:13:39;;;;;;;;;;;;;;;;;;2211641;67;1978;-55
2022/07/08 11:16:13;;;;;;;;;;;;;;;;;;2211074;67;1299;-54
2022/07/08 11:18:48;;;;;;;;;;;;;;;;;;2211561;67;1218;-56
2022/07/08 11:21:21;;;;;;;;;;;;;;;;;;2212548;67;1172;-54
2022/07/08 11:23:54;;;;;;;;;;;;;;;;;;2212299;66;1227;-54
2022/07/08 11:26:30;;;;;;;;;;;;;;;;;;2212056;59;1240;-54
2022/07/08 11:29:03;;;;;;;;;;;;;;;;;;2278523;53;2143;-68
2022/07/08 11:31:36;;;;;;;;;;;;;;;;;;2215167;58;2104;-67
2022/07/08 11:34:20;;;;;;;;;;;;;;;;;;2216080;59;1932;-68
2022/07/08 11:36:56;;;;;;;;;;;;;;;;;;2215768;66;1201;-66
2022/07/08 11:39:29;;;;;;;;;;;;;;;;;;2215313;59;1159;-67
2022/07/08 11:42:06;;;;;;;;;;;;;;;;;;2215639;59;1940;-68
2022/07/08 11:44:39;;;;;;;;;;;;;;;;;;2215511;66;1134;-67
2022/07/08 11:47:15;;;;;;;;;;;;;;;;;;2215159;66;1209;-67
2022/07/08 11:49:49;;;;;;;;;;;;;;;;;;2210690;66;1268;-66
2022/07/08 11:52:22;;;;;;;;;;;;;;;;;;2215330;66;1211;-68
2022/07/08 11:54:57;;;;;;;;;;;;;;;;;;2214721;66;1992;-68
2022/07/08 11:57:33;;;;;;;;;;;;;;;;;;2215353;66;1250;-67
2022/07/08 12:00:07;;;;;;;;;;;;;;;;;;2215246;66;1247;-66
2022/07/08 12:02:40;;;;;;;;;;;;;;;;;;2214623;66;1245;-67
2022/07/08 12:05:14;;;;;;;;;;;;;;;;;;2215278;58;1650;-67
2022/07/08 12:07:47;;;;;;;;;;;;;;;;;;2215572;66;1237;-67
2022/07/08 12:10:23;;;;;;;;;;;;;;;;;;2214894;66;1175;-68
2022/07/08 12:13:00;;;;;;;;;;;;;;;;;;2215135;58;1518;-64
2022/07/08 12:15:36;;;;;;;;;;;;;;;;;;2214453;66;1952;-65
2022/07/08 12:18:09;;;;;;;;;;;;;;;;;;2214513;66;1278;-66
2022/07/08 12:20:44;;;;;;;;;;;;;;;;;;2214518;66;1211;-67
2022/07/08 12:23:17;;;;;;;;;;;;;;;;;;2214329;66;1214;-67
2022/07/08 12:25:52;;;;;;;;;;;;;;;;;;2215322;66;1224;-67
2022/07/08 12:28:28;;;;;;;;;;;;;;;;;;2215258;58;1216;-67
2022/07/08 12:31:01;;;;;;;;;;;;;;;;;;2215169;58;2027;-67
2022/07/08 12:33:34;;;;;;;;;;;;;;;;;;2216935;66;1936;-67
2022/07/08 12:36:22;;;;;;;;;;;;;;;;;;2214737;66;1133;-67
2022/07/08 12:38:55;;;;;;;;;;;;;;;;;;2215659;66;1805;-66
2022/07/08 12:41:28;;;;;;;;;;;;;;;;;;2215472;66;2068;-65
2022/07/08 12:44:24;;;;;;;;;;;;;;;;;;2214821;66;1203;-66
2022/07/08 12:46:58;;;;;;;;;;;;;;;;;;2214900;66;1527;-67
2022/07/08 12:49:31;;;;;;;;;;;;;;;;;;2215181;66;1197;-67
2022/07/08 12:52:05;;;;;;;;;;;;;;;;;;2215158;66;1089;-66
2022/07/08 12:54:39;;;;;;;;;;;;;;;;;;2214774;66;1937;-66
2022/07/08 12:57:13;;;;;;;;;;;;;;;;;;2214265;66;1245;-68
2022/07/08 12:59:49;;;;;;;;;;;;;;;;;;2215219;58;1183;-68
2022/07/08 13:02:22;;;;;;;;;;;;;;;;;;2214882;66;1252;-67
2022/07/08 13:04:55;;;;;;;;;;;;;;;;;;2215716;58;1369;-67
2022/07/08 13:07:28;;;;;;;;;;;;;;;;;;2215549;58;1259;-67
2022/07/08 13:10:02;;;;;;;;;;;;;;;;;;2215494;66;1211;-67
2022/07/08 13:12:35;;;;;;;;;;;;;;;;;;2215912;58;1251;-67
2022/07/08 13:15:12;;;;;;;;;;;;;;;;;;2213931;66;1935;-66
2022/07/08 13:17:45;;;;;;;;;;;;;;;;;;2215794;66;1214;-67
2022/07/08 13:20:18;;;;;;;;;;;;;;;;;;2214710;66;1148;-67
2022/07/08 13:22:51;;;;;;;;;;;;;;;;;;2214178;66;1089;-67
2022/07/08 13:25:24;;;;;;;;;;;;;;;;;;2215288;59;1276;-67
2022/07/08 13:27:58;;;;;;;;;;;;;;;;;;2214045;66;1187;-67
2022/07/08 13:30:33;;;;;;;;;;;;;;;;;;2216143;58;1994;-67
2022/07/08 13:33:07;;;;;;;;;;;;;;;;;;2216293;66;1224;-66
2022/07/08 13:35:40;;;;;;;;;;;;;;;;;;2218630;66;1939;-66
2022/07/08 13:38:13;;;;;;;;;;;;;;;;;;2216924;66;1222;-66
2022/07/08 13:40:46;;;;;;;;;;;;;;;;;;2215945;59;1910;-67
2022/07/08 13:43:19;;;;;;;;;;;;;;;;;;2214770;66;1271;-64
2022/07/08 13:45:55;;;;;;;;;;;;;;;;;;2215691;66;1168;-65
2022/07/08 13:48:28;;;;;;;;;;;;;;;;;;2215287;66;1217;-66
2022/07/08 13:51:01;;;;;;;;;;;;;;;;;;2214353;66;1237;-66
2022/07/08 13:53:35;;;;;;;;;;;;;;;;;;2214775;66;1240;-66
2022/07/08 13:56:08;;;;;;;;;;;;;;;;;;2214773;66;1938;-66
2022/07/08 13:58:41;;;;;;;;;;;;;;;;;;2215646;66;1215;-65
2022/07/08 14:01:17;;;;;;;;;;;;;;;;;;2214668;66;1216;-67
2022/07/08 14:03:51;;;;;;;;;;;;;;;;;;2215121;58;1166;-66
2022/07/08 14:06:26;;;;;;;;;;;;;;;;;;2215242;66;1260;-64
2022/07/08 14:08:59;;;;;;;;;;;;;;;;;;2215198;66;1270;-67
2022/07/08 14:11:32;;;;;;;;;;;;;;;;;;2215353;58;1808;-67
2022/07/08 14:14:06;;;;;;;;;;;;;;;;;;2214190;59;1995;-66
2022/07/08 14:16:41;;;;;;;;;;;;;;;;;;2214524;66;1042;-64
2022/07/08 14:19:15;;;;;;;;;;;;;;;;;;2214096;66;1172;-66
2022/07/08 14:21:48;;;;;;;;;;;;;;;;;;2214392;66;1135;-67
2022/07/08 14:24:21;;;;;;;;;;;;;;;;;;2214202;66;1140;-65
2022/07/08 14:26:55;;;;;;;;;;;;;;;;;;2214867;59;1353;-67
2022/07/08 14:29:28;;;;;;;;;;;;;;;;;;2215219;58;1242;-65
2022/07/08 14:32:04;;;;;;;;;;;;;;;;;;2215650;58;1932;-66
2022/07/08 14:34:38;;;;;;;;;;;;;;;;;;2216914;66;1923;-66
2022/07/08 14:37:11;;;;;;;;;;;;;;;;;;2215380;58;1192;-67
2022/07/08 14:39:45;;;;;;;;;;;;;;;;;;2215723;58;1294;-67
2022/07/08 14:42:18;;;;;;;;;;;;;;;;;;2214544;59;2044;-67
2022/07/08 14:44:52;;;;;;;;;;;;;;;;;;2214242;66;1110;-66
2022/07/08 14:47:28;;;;;;;;;;;;;;;;;;2215212;66;1258;-66
2022/07/08 14:50:01;;;;;;;;;;;;;;;;;;2210796;66;1559;-67
2022/07/08 14:52:34;;;;;;;;;;;;;;;;;;2214672;66;1060;-65
2022/07/08 14:55:07;;;;;;;;;;;;;;;;;;2213951;66;1975;-65
2022/07/08 14:57:41;;;;;;;;;;;;;;;;;;2214087;66;1256;-67
2022/07/08 15:00:14;;;;;;;;;;;;;;;;;;2213977;66;1207;-67
2022/07/08 15:02:50;;;;;;;;;;;;;;;;;;2213931;66;1159;-66
2022/07/08 15:05:23;;;;;;;;;;;;;;;;;;2214854;66;1230;-67
2022/07/08 15:07:56;;;;;;;;;;;;;;;;;;2215084;66;1247;-67
2022/07/08 15:10:30;;;;;;;;;;;;;;;;;;2214467;59;1314;-66
2022/07/08 15:13:03;;;;;;;;;;;;;;;;;;2213954;58;1207;-68
2022/07/08 15:15:36;;;;;;;;;;;;;;;;;;2214388;66;1947;-66
2022/07/08 15:18:12;;;;;;;;;;;;;;;;;;2214058;66;1275;-67
2022/07/08 15:20:45;;;;;;;;;;;;;;;;;;2213895;66;1317;-66
2022/07/08 15:23:19;;;;;;;;;;;;;;;;;;2215241;66;1124;-66
2022/07/08 15:25:52;;;;;;;;;;;;;;;;;;2215066;66;1195;-67
2022/07/08 15:28:25;;;;;;;;;;;;;;;;;;2214394;59;1229;-66
2022/07/08 15:30:58;;;;;;;;;;;;;;;;;;2214270;58;1904;-65
2022/07/08 15:33:35;;;;;;;;;;;;;;;;;;2215204;59;1169;-67
2022/07/08 15:36:08;;;;;;;;;;;;;;;;;;2214808;66;1984;-66
2022/07/08 15:38:41;;;;;;;;;;;;;;;;;;2212067;66;1274;-66
2022/07/08 15:41:14;;;;;;;;;;;;;;;;;;2214420;59;1962;-66
2022/07/08 15:43:48;;;;;;;;;;;;;;;;;;2214751;66;1201;-67
2022/07/08 15:46:21;;;;;;;;;;;;;;;;;;2215167;66;1183;-67
2022/07/08 15:48:57;;;;;;;;;;;;;;;;;;2213844;66;1249;-67
2022/07/08 15:51:30;;;;;;;;;;;;;;;;;;2215372;66;1129;-66
2022/07/08 15:54:03;;;;;;;;;;;;;;;;;;2215606;66;1206;-66
2022/07/08 15:56:36;;;;;;;;;;;;;;;;;;2215278;66;1933;-66
2022/07/08 15:59:09;;;;;;;;;;;;;;;;;;2216990;66;1222;-68
2022/07/08 16:01:43;;;;;;;;;;;;;;;;;;2215621;66;1158;-67
2022/07/08 16:04:19;;;;;;;;;;;;;;;;;;2214817;59;1389;-67
2022/07/08 16:06:52;;;;;;;;;;;;;;;;;;2216079;66;1153;-67
2022/07/08 16:09:25;;;;;;;;;;;;;;;;;;2215397;66;1300;-65
2022/07/08 16:11:58;;;;;;;;;;;;;;;;;;2216366;58;1365;-66
2022/07/08 16:14:32;;;;;;;;;;;;;;;;;;2215646;66;1196;-67
2022/07/08 16:17:05;;;;;;;;;;;;;;;;;;2215454;66;1935;-67
2022/07/08 16:19:41;;;;;;;;;;;;;;;;;;2215599;66;1571;-66
2022/07/08 16:22:14;;;;;;;;;;;;;;;;;;2216564;66;1197;-68
2022/07/08 16:24:47;;;;;;;;;;;;;;;;;;2216544;66;1199;-66
2022/07/08 16:27:21;;;;;;;;;;;;;;;;;;2215425;66;1234;-68
2022/07/08 16:29:54;;;;;;;;;;;;;;;;;;2216229;59;1122;-66
2022/07/08 16:32:27;;;;;;;;;;;;;;;;;;2216578;59;1955;-67
2022/07/08 16:35:03;;;;;;;;;;;;;;;;;;2216812;66;1919;-67
2022/07/08 16:37:36;;;;;;;;;;;;;;;;;;2216100;66;1240;-66
2022/07/08 16:40:10;;;;;;;;;;;;;;;;;;2215915;66;1219;-68
2022/07/08 16:42:43;;;;;;;;;;;;;;;;;;2216184;66;2184;-68
2022/07/08 16:45:16;;;;;;;;;;;;;;;;;;2216431;66;1243;-67
2022/07/08 16:47:49;;;;;;;;;;;;;;;;;;2216514;66;1208;-67
2022/07/08 16:50:25;;;;;;;;;;;;;;;;;;2216848;60;1190;-68
2022/07/08 16:53:01;;;;;;;;;;;;;;;;;;2216481;59;1216;-67
2022/07/08 16:55:34;;;;;;;;;;;;;;;;;;2216118;66;1934;-67
2022/07/08 16:58:08;;;;;;;;;;;;;;;;;;2215476;66;1266;-67
2022/07/08 17:00:41;;;;;;;;;;;;;;;;;;2216148;66;1192;-68
2022/07/08 17:03:14;;;;;;;;;;;;;;;;;;2215931;58;1344;-68
2022/07/08 17:05:50;;;;;;;;;;;;;;;;;;2216321;66;1294;-67
2022/07/08 17:08:23;;;;;;;;;;;;;;;;;;2216290;66;1129;-67
2022/07/08 17:10:57;;;;;;;;;;;;;;;;;;2216908;58;1159;-67
2022/07/08 17:13:30;;;;;;;;;;;;;;;;;;2215395;66;1231;-68
2022/07/08 17:16:03;;;;;;;;;;;;;;;;;;2216156;66;1939;-66
2022/07/08 17:18:36;;;;;;;;;;;;;;;;;;2215872;66;1265;-68
2022/07/08 17:21:15;;;;;;;;;;;;;;;;;;2215730;66;1204;-67
2022/07/08 17:23:48;;;;;;;;;;;;;;;;;;2216516;59;1195;-64
2022/07/08 17:26:21;;;;;;;;;;;;;;;;;;2216409;58;1264;-67
2022/07/08 17:29:47;;;;;;;;;;;;;;;;;;2216428;59;1302;-67
2022/07/08 17:31:47;;;;;;;;;;;;;;;;;;2216768;58;2017;-68
2022/07/08 17:34:21;;;;;;;;;;;;;;;;;;2216588;66;1204;-68
2022/07/08 17:36:57;;;;;;;;;;;;;;;;;;2216423;66;1943;-67
2022/07/08 17:39:30;;;;;;;;;;;;;;;;;;2216034;66;1207;-67
2022/07/08 17:42:05;;;;;;;;;;;;;;;;;;2216843;58;1998;-67
2022/07/08 17:44:39;;;;;;;;;;;;;;;;;;2216815;66;1079;-67
2022/07/08 17:47:13;;;;;;;;;;;;;;;;;;2215565;66;1233;-67
2022/07/08 17:49:46;;;;;;;;;;;;;;;;;;2216394;66;1357;-67
2022/07/08 17:52:22;;;;;;;;;;;;;;;;;;2216016;66;1206;-68
2022/07/08 17:54:56;;;;;;;;;;;;;;;;;;2216730;59;1090;-65
2022/07/08 17:57:29;;;;;;;;;;;;;;;;;;2215241;59;1931;-67